Time;durP1;ratioP1;P1;durP2;ratioP2;P2;SDS_P1;SDS_P2;PMS_P1;PMS_P2;Temp;Humidity;BMP_temperature;BMP_pressure;BME280_temperature;BME280_humidity;BME280_pressure;Samples;Min_cycle;Max_cycle;Signal;HPM_P1;HPM_P2
2021/07/17 00:00:41;;;;;;;25.00;18.77;;;;;;;19.88;84.73;95987.31;6252086;22;20004;-90
2021/07/17 00:03:06;;;;;;;23.40;18.85;;;;;;;-145.61;100.00;68426.72;6252174;22;20007;-89
2021/07/17 00:05:32;;;;;;;23.63;18.85;;;;;;;19.53;84.19;95968.38;6252134;22;20424;-90
2021/07/17 00:07:58;;;;;;;26.13;19.30;;;;;;;19.53;84.19;95968.38;6252480;22;20046;-90
2021/07/17 00:10:53;;;;;;;20.50;17.95;;;;;;;19.55;85.14;95985.13;6251720;22;20007;-90
2021/07/17 00:13:20;;;;;;;22.25;17.98;;;;;;;19.55;85.14;95985.13;6227003;22;20420;-90
2021/07/17 00:15:48;;;;;;;22.08;18.25;;;;;;;19.58;84.98;95997.84;6251866;22;20018;-90
2021/07/17 00:18:17;;;;;;;21.17;17.63;;;;;;;19.54;84.61;95991.88;6251892;22;20012;-90
2021/07/17 00:20:43;;;;;;;20.50;18.05;;;;;;;19.54;84.61;95991.88;6251893;22;20007;-89
2021/07/17 00:23:09;;;;;;;20.38;17.42;;;;;;;19.48;85.42;95996.75;6251491;22;20007;-90
2021/07/17 00:25:35;;;;;;;25.10;18.10;;;;;;;19.36;85.61;96001.69;6251310;22;20344;-90
2021/07/17 00:28:01;;;;;;;21.92;17.75;;;;;;;19.33;85.12;95991.72;6251941;22;20019;-90
2021/07/17 00:30:26;;;;;;;21.83;17.92;;;;;;;19.09;85.21;95962.34;6251666;22;20008;-90
2021/07/17 00:32:52;;;;;;;22.27;18.50;;;;;;;19.09;85.21;95962.34;6251406;22;20411;-90
2021/07/17 00:35:18;;;;;;;22.83;18.65;;;;;;;-145.61;100.00;68426.72;6251784;22;20389;-90
2021/07/17 00:37:44;;;;;;;24.73;19.58;;;;;;;-145.61;100.00;68426.72;6251646;22;20012;-90
2021/07/17 00:40:11;;;;;;;24.55;18.55;;;;;;;-145.61;100.00;68426.72;6251611;22;20008;-91
2021/07/17 00:42:44;;;;;;;24.92;18.05;;;;;;;19.09;85.21;95962.34;6251726;22;20336;-91
2021/07/17 00:45:11;;;;;;;22.60;17.73;;;;;;;19.09;85.21;95962.34;6251641;22;20010;-90
2021/07/17 00:47:39;;;;;;;21.95;17.50;;;;;;;19.38;84.71;95961.34;6251507;22;20424;-90
2021/07/17 00:50:07;;;;;;;22.85;19.30;;;;;;;19.37;84.68;95983.91;6251642;22;20083;-90
2021/07/17 00:52:34;;;;;;;22.38;17.73;;;;;;;19.15;85.53;95985.00;6251546;22;20463;-90
2021/07/17 00:55:01;;;;;;;21.83;17.73;;;;;;;-145.61;100.00;68426.72;6251459;22;20086;-90
2021/07/17 00:57:31;;;;;;;23.02;17.25;;;;;;;-145.61;100.00;68426.72;6251488;22;20332;-90
2021/07/17 00:59:59;;;;;;;25.55;18.55;;;;;;;-145.61;100.00;68426.72;6251480;22;20011;-89
2021/07/17 01:02:25;;;;;;;24.45;19.13;;;;;;;19.15;85.53;95985.00;6251565;22;20014;-90
2021/07/17 01:04:52;;;;;;;25.95;19.75;;;;;;;-145.61;100.00;68426.72;6251244;22;20000;-90
2021/07/17 01:07:18;;;;;;;24.30;19.30;;;;;;;-145.61;100.00;68426.72;6251472;22;19991;-90
2021/07/17 01:09:43;;;;;;;22.10;19.17;;;;;;;-145.61;100.00;68426.72;6251386;22;20012;-90
2021/07/17 01:12:09;;;;;;;24.50;18.85;;;;;;;-145.61;100.00;68426.72;6251472;22;20031;-90
2021/07/17 01:14:36;;;;;;;21.83;18.73;;;;;;;-145.61;100.00;68426.72;6251085;22;20046;-90
2021/07/17 01:17:02;;;;;;;25.65;18.95;;;;;;;-145.61;100.00;68426.72;6251346;22;20057;-90
2021/07/17 01:19:28;;;;;;;21.10;17.90;;;;;;;-145.61;100.00;68426.72;6251313;22;20007;-90
2021/07/17 01:21:54;;;;;;;19.85;16.30;;;;;;;-145.61;100.00;68426.72;6251371;22;20030;-90
2021/07/17 01:24:22;;;;;;;24.35;17.60;;;;;;;-145.61;100.00;68426.72;6251266;22;20003;-91
2021/07/17 01:26:49;;;;;;;22.58;16.92;;;;;;;-145.61;100.00;68426.72;6251353;22;19999;-90
2021/07/17 01:29:15;;;;;;;21.17;17.25;;;;;;;-145.61;100.00;68426.72;6251385;22;20008;-90
2021/07/17 01:31:40;;;;;;;22.25;17.20;;;;;;;-145.61;100.00;68426.72;6251057;22;20007;-89
2021/07/17 01:34:06;;;;;;;21.13;17.95;;;;;;;-145.61;100.00;68426.72;6251112;22;20448;-90
2021/07/17 01:36:32;;;;;;;33.60;17.45;;;;;;;-145.61;100.00;68426.72;6250654;22;20003;-90
2021/07/17 01:38:57;;;;;;;23.02;17.13;;;;;;;-145.61;100.00;68426.72;6250866;22;20069;-90
2021/07/17 01:41:23;;;;;;;22.45;17.00;;;;;;;-145.61;100.00;68426.72;6251077;22;20046;-90
2021/07/17 01:43:50;;;;;;;24.27;18.00;;;;;;;-145.61;100.00;68426.72;6251019;22;20412;-90
2021/07/17 01:46:17;;;;;;;22.00;17.90;;;;;;;-145.61;100.00;68426.72;6251205;22;20068;-90
2021/07/17 01:48:53;;;;;;;21.08;18.23;;;;;;;-145.61;100.00;68426.72;6251074;22;20329;-90
2021/07/17 01:51:20;;;;;;;22.20;18.67;;;;;;;-145.61;100.00;68426.72;6277949;22;20006;-90
2021/07/17 01:53:46;;;;;;;24.10;18.25;;;;;;;-145.61;100.00;68426.72;6251037;22;20101;-90
2021/07/17 01:56:13;;;;;;;24.33;17.77;;;;;;;-145.61;100.00;68426.72;6250865;22;20023;-90
2021/07/17 01:58:39;;;;;;;22.83;18.05;;;;;;;-145.61;100.00;68426.72;6250904;22;20010;-90
2021/07/17 02:01:04;;;;;;;22.60;17.95;;;;;;;-145.61;100.00;68426.72;6250999;22;20087;-90
2021/07/17 02:03:30;;;;;;;21.52;17.17;;;;;;;-145.61;100.00;68426.72;6250980;22;20006;-90
2021/07/17 02:05:55;;;;;;;21.35;17.73;;;;;;;-145.61;100.00;68426.72;6250788;22;20008;-90
2021/07/17 02:08:21;;;;;;;22.27;17.50;;;;;;;-145.61;100.00;68426.72;6250897;22;20041;-90
2021/07/17 02:10:47;;;;;;;22.30;17.63;;;;;;;-145.61;100.00;68426.72;6250968;22;20041;-90
2021/07/17 02:13:15;;;;;;;21.88;17.80;;;;;;;-145.61;100.00;68426.72;6250653;22;20003;-90
2021/07/17 02:15:48;;;;;;;23.27;17.67;;;;;;;-145.61;100.00;68426.72;6277754;22;20415;-89
2021/07/17 02:18:21;;;;;;;23.23;17.90;;;;;;;-145.61;100.00;68426.72;6250701;22;20003;-90
2021/07/17 02:20:47;;;;;;;19.30;17.17;;;;;;;-145.61;100.00;68426.72;6250881;22;20498;-91
2021/07/17 02:23:12;;;;;;;23.00;18.45;;;;;;;-145.61;100.00;68426.72;6250767;22;20039;-90
2021/07/17 02:25:38;;;;;;;22.92;17.90;;;;;;;-145.61;100.00;68426.72;6250557;22;20007;-90
2021/07/17 02:28:05;;;;;;;21.73;17.70;;;;;;;-145.61;100.00;68426.72;6250849;22;20003;-90
2021/07/17 02:30:30;;;;;;;21.05;17.60;;;;;;;-145.61;100.00;68426.72;6250724;22;20014;-90
2021/07/17 02:32:56;;;;;;;22.92;17.00;;;;;;;-145.61;100.00;68426.72;6224941;23;20100;-90
2021/07/17 02:35:22;;;;;;;21.63;16.98;;;;;;;-145.61;100.00;68426.72;6225019;23;20059;-90
2021/07/17 02:37:48;;;;;;;20.45;17.45;;;;;;;-145.61;100.00;68426.72;6224824;23;20006;-90
2021/07/17 02:40:14;;;;;;;19.77;17.33;;;;;;;-145.61;100.00;68426.72;6225215;23;20010;-90
2021/07/17 02:42:39;;;;;;;24.95;18.00;;;;;;;-145.61;100.00;68426.72;6224970;23;20051;-90
2021/07/17 02:45:06;;;;;;;22.02;16.92;;;;;;;-145.61;100.00;68426.72;6224853;23;20060;-90
2021/07/17 02:47:32;;;;;;;23.70;17.42;;;;;;;-145.61;100.00;68426.72;6225126;23;20028;-90
2021/07/17 02:49:58;;;;;;;19.13;16.67;;;;;;;-145.61;100.00;68426.72;6225009;23;20010;-89
2021/07/17 02:52:24;;;;;;;53.80;19.38;;;;;;;-145.61;100.00;68426.72;6224770;23;20063;-90
2021/07/17 02:54:50;;;;;;;24.60;16.65;;;;;;;-145.61;100.00;68426.72;6224893;23;20010;-89
2021/07/17 02:57:15;;;;;;;23.10;18.00;;;;;;;-145.61;100.00;68426.72;6224708;23;20168;-90
2021/07/17 02:59:41;;;;;;;19.10;16.90;;;;;;;-145.61;100.00;68426.72;6225146;23;20032;-89
2021/07/17 03:02:06;;;;;;;20.65;17.15;;;;;;;-145.61;100.00;68426.72;6225002;23;20089;-89
2021/07/17 03:04:32;;;;;;;22.48;17.90;;;;;;;-145.61;100.00;68426.72;6225069;23;20017;-89
2021/07/17 03:06:58;;;;;;;23.77;18.67;;;;;;;-145.61;100.00;68426.72;6224426;23;19998;-90
2021/07/17 03:09:23;;;;;;;24.48;18.45;;;;;;;-145.61;100.00;68426.72;6224726;23;20021;-90
2021/07/17 03:11:49;;;;;;;25.55;18.77;;;;;;;-145.61;100.00;68426.72;6224881;23;20017;-90
2021/07/17 03:14:14;;;;;;;25.02;17.92;;;;;;;-145.61;100.00;68426.72;6224496;23;20445;-89
2021/07/17 03:16:42;;;;;;;24.23;19.23;;;;;;;-145.61;100.00;68426.72;6224855;23;20060;-89
2021/07/17 03:19:07;;;;;;;25.85;18.52;;;;;;;-145.61;100.00;68426.72;6224729;23;20034;-90
2021/07/17 03:21:33;;;;;;;22.92;18.40;;;;;;;-145.61;100.00;68426.72;6224775;23;20485;-89
2021/07/17 03:23:58;;;;;;;20.95;17.83;;;;;;;-145.61;100.00;68426.72;6224606;23;20342;-90
2021/07/17 03:26:24;;;;;;;22.10;17.80;;;;;;;-145.61;100.00;68426.72;6122495;22;20006;-89
2021/07/17 03:28:49;;;;;;;29.35;17.75;;;;;;;-145.61;100.00;68426.72;6224624;23;20001;-89
2021/07/17 03:31:16;;;;;;;25.33;17.88;;;;;;;-145.61;100.00;68426.72;6224697;23;20010;-90
2021/07/17 03:33:42;;;;;;;30.90;18.25;;;;;;;-145.61;100.00;68426.72;6224101;23;20022;-90
2021/07/17 03:36:07;;;;;;;21.50;18.00;;;;;;;-145.61;100.00;68426.72;6224638;23;20021;-90
2021/07/17 03:38:33;;;;;;;24.40;17.80;;;;;;;-145.61;100.00;68426.72;6224663;23;20024;-90
2021/07/17 03:40:59;;;;;;;21.17;17.38;;;;;;;-145.61;100.00;68426.72;6224785;23;20497;-90
2021/07/17 03:43:25;;;;;;;23.05;17.88;;;;;;;-145.61;100.00;68426.72;6224619;23;20006;-90
2021/07/17 03:45:50;;;;;;;23.75;17.38;;;;;;;-145.61;100.00;68426.72;6224676;23;20072;-90
2021/07/17 03:48:16;;;;;;;21.08;17.13;;;;;;;-145.61;100.00;68426.72;6224596;23;20088;-90
2021/07/17 03:50:41;;;;;;;19.67;16.50;;;;;;;-145.61;100.00;68426.72;6224509;23;20010;-91
2021/07/17 03:53:07;;;;;;;20.58;16.73;;;;;;;-145.61;100.00;68426.72;6224674;23;20088;-90
2021/07/17 03:55:33;;;;;;;21.05;17.38;;;;;;;-145.61;100.00;68426.72;6224552;23;20080;-90
2021/07/17 03:57:58;;;;;;;21.52;18.33;;;;;;;-145.61;100.00;68426.72;6224806;23;20010;-90
2021/07/17 04:00:24;;;;;;;19.98;16.65;;;;;;;-145.61;100.00;68426.72;6225337;23;20006;-90
2021/07/17 04:02:49;;;;;;;23.42;16.73;;;;;;;19.15;85.53;95985.00;6226632;23;20021;-90
2021/07/17 04:05:16;;;;;;;26.38;16.58;;;;;;;-145.61;100.00;68426.72;6226604;23;20482;-90
2021/07/17 04:07:43;;;;;;;22.65;16.90;;;;;;;-145.61;100.00;68426.72;6226553;23;20128;-90
2021/07/17 04:10:11;;;;;;;24.70;16.58;;;;;;;-145.61;100.00;68426.72;6226271;23;20436;-90
2021/07/17 04:12:36;;;;;;;57.65;18.83;;;;;;;-145.61;100.00;68426.72;6226286;23;20002;-90
2021/07/17 04:15:04;;;;;;;21.73;16.35;;;;;;;-145.61;100.00;68426.72;6226376;23;20495;-90
2021/07/17 04:17:29;;;;;;;26.42;17.48;;;;;;;18.98;87.92;95985.25;6226349;23;20006;-90
2021/07/17 04:19:55;;;;;;;20.88;16.58;;;;;;;18.98;87.92;95985.25;6226407;23;20010;-90
2021/07/17 04:22:21;;;;;;;21.17;17.10;;;;;;;18.99;86.44;95961.97;6225939;23;20009;-90
2021/07/17 04:24:46;;;;;;;23.10;17.85;;;;;;;-98.70;87.42;95992.13;6226474;23;20037;-90
2021/07/17 04:27:13;;;;;;;20.88;16.75;;;;;;;19.03;87.41;95967.19;6226111;23;20048;-90
2021/07/17 04:29:38;;;;;;;19.38;16.65;;;;;;;19.27;86.89;95999.34;6226285;23;20005;-90
2021/07/17 04:32:04;;;;;;;21.10;17.70;;;;;;;19.23;86.39;95994.16;6225615;23;20016;-90
2021/07/17 04:34:30;;;;;;;21.30;17.65;;;;;;;19.21;86.40;95971.91;6226111;23;20022;-90
2021/07/17 04:36:56;;;;;;;22.67;18.05;;;;;;;19.44;86.32;95990.81;6225690;23;20028;-90
2021/07/17 04:39:23;;;;;;;20.35;15.75;;;;;;;19.48;84.97;95983.72;6225684;23;20343;-90
2021/07/17 04:41:48;;;;;;;19.15;16.75;;;;;;;19.46;84.88;95969.00;6226094;23;20132;-90
2021/07/17 04:44:14;;;;;;;22.23;16.27;;;;;;;19.52;85.06;95969.66;6226056;23;20446;-90
2021/07/17 04:46:40;;;;;;;19.80;16.58;;;;;;;19.61;84.84;95981.03;6226176;23;20009;-90
2021/07/17 04:49:05;;;;;;;20.08;16.00;;;;;;;19.64;84.22;95976.47;6226224;23;20006;-90
2021/07/17 04:51:31;;;;;;;20.40;16.33;;;;;;;19.71;83.47;95986.88;6226649;23;20013;-90
2021/07/17 04:53:56;;;;;;;19.13;15.55;;;;;;;19.77;84.20;95986.78;6225809;23;20009;-90
2021/07/17 04:56:22;;;;;;;22.27;16.58;;;;;;;19.61;84.53;95967.28;6225845;23;20163;-91
2021/07/17 04:58:47;;;;;;;19.95;15.75;;;;;;;19.55;84.63;95947.31;6226015;23;20010;-90
2021/07/17 05:01:13;;;;;;;20.52;15.98;;;;;;;19.68;83.78;95954.88;6225647;23;20454;-90
2021/07/17 05:03:39;;;;;;;22.00;15.32;;;;;;;19.70;83.93;95960.59;6225949;23;20017;-91
2021/07/17 05:06:05;;;;;;;21.45;16.40;;;;;;;19.70;83.89;95949.56;6225834;23;20102;-90
2021/07/17 05:08:31;;;;;;;21.67;16.27;;;;;;;19.79;83.96;95951.91;6225482;23;20010;-90
2021/07/17 05:10:57;;;;;;;19.35;16.50;;;;;;;19.86;83.42;95962.31;6225761;23;20434;-90
2021/07/17 05:13:24;;;;;;;19.63;15.75;;;;;;;20.11;83.13;95981.41;6226065;23;20006;-91
2021/07/17 05:15:50;;;;;;;17.45;14.88;;;;;;;19.94;81.79;95945.91;6228170;23;20069;-90
2021/07/17 05:18:16;;;;;;;22.13;15.40;;;;;;;19.99;82.13;95953.31;6225762;23;20426;-90
2021/07/17 05:20:42;;;;;;;20.48;15.57;;;;;;;19.79;80.81;95916.09;6225642;23;20013;-90
2021/07/17 05:23:08;;;;;;;19.13;15.32;;;;;;;20.29;81.27;95977.03;6224505;23;20029;-90
2021/07/17 05:25:34;;;;;;;18.70;14.85;;;;;;;20.23;80.97;95959.88;6226971;23;20037;-91
2021/07/17 05:27:59;;;;;;;22.10;14.75;;;;;;;20.27;81.01;95950.00;6225060;23;20055;-91
2021/07/17 05:30:25;;;;;;;18.77;15.38;;;;;;;20.19;80.14;95940.91;6225661;23;20473;-91
2021/07/17 05:32:51;;;;;;;17.80;15.20;;;;;;;20.25;79.20;95944.28;6224801;23;20105;-90
2021/07/17 05:35:16;;;;;;;16.38;14.68;;;;;;;20.19;79.63;95938.16;6225282;23;20092;-90
2021/07/17 05:37:42;;;;;;;20.67;16.02;;;;;;;20.13;81.39;95923.72;6225564;23;20013;-90
2021/07/17 05:40:08;;;;;;;20.83;14.95;;;;;;;20.37;81.67;95958.59;6225664;23;20025;-90
2021/07/17 05:42:34;;;;;;;21.35;15.23;;;;;;;20.35;81.34;95959.13;6225625;23;20139;-90
2021/07/17 05:44:59;;;;;;;17.23;14.55;;;;;;;20.52;80.59;95977.38;6225500;23;20443;-91
2021/07/17 05:47:26;;;;;;;20.48;15.32;;;;;;;20.28;82.06;95942.47;6225466;23;19998;-90
2021/07/17 05:49:51;;;;;;;21.33;15.55;;;;;;;20.38;81.85;95951.78;6225215;23;20013;-90
2021/07/17 05:52:17;;;;;;;20.33;17.20;;;;;;;20.49;82.19;95964.63;6225196;23;20010;-94
2021/07/17 05:54:42;;;;;;;23.67;16.92;;;;;;;20.57;82.41;95977.25;6225179;23;20009;-90
2021/07/17 05:57:08;;;;;;;26.13;18.15;;;;;;;20.50;82.33;95963.34;6224990;23;20002;-91
2021/07/17 05:59:36;;;;;;;24.73;17.58;;;;;;;20.56;82.24;95975.00;6225344;23;20014;-91
2021/07/17 06:02:01;;;;;;;21.15;16.85;;;;;;;20.63;81.38;95975.13;6225201;23;20001;-90
2021/07/17 06:04:27;;;;;;;22.25;17.05;;;;;;;20.54;81.73;95966.53;6225248;23;20012;-91
2021/07/17 06:06:52;;;;;;;23.05;17.50;;;;;;;20.67;80.97;95975.53;6225107;23;20005;-91
2021/07/17 06:09:18;;;;;;;24.35;18.80;;;;;;;20.68;81.55;95981.78;6225251;23;20012;-91
2021/07/17 06:11:43;;;;;;;23.08;17.92;;;;;;;20.70;81.11;95967.44;6225134;23;20010;-91
2021/07/17 06:14:09;;;;;;;25.75;17.77;;;;;;;20.70;81.01;95964.69;6225400;23;20084;-91
2021/07/17 06:16:34;;;;;;;23.42;16.88;;;;;;;20.82;81.09;95985.97;6224889;23;20006;-89
2021/07/17 06:19:00;;;;;;;22.30;17.65;;;;;;;20.77;80.33;95953.72;6225026;23;20029;-91
2021/07/17 06:21:25;;;;;;;22.45;16.77;;;;;;;20.93;79.96;95974.72;6224702;23;20013;-90
2021/07/17 06:23:51;;;;;;;22.40;16.95;;;;;;;20.93;78.56;95985.00;6224747;23;20335;-90
2021/07/17 06:26:16;;;;;;;18.58;16.50;;;;;;;20.79;78.82;95961.50;6225444;23;20006;-91
2021/07/17 06:28:42;;;;;;;24.83;16.85;;;;;;;21.04;78.95;95992.28;6224852;23;20024;-91
2021/07/17 06:31:08;;;;;;;21.65;16.13;;;;;;;21.11;78.50;95986.84;6225092;23;20013;-91
2021/07/17 06:33:34;;;;;;;21.70;16.02;;;;;;;21.11;77.98;95983.34;6224766;23;20045;-90
2021/07/17 06:36:00;;;;;;;19.05;15.77;;;;;;;21.25;77.90;96000.59;6225311;23;20024;-90
2021/07/17 06:38:25;;;;;;;24.90;15.80;;;;;;;21.23;77.96;95981.81;6224920;23;20426;-90
2021/07/17 06:40:51;;;;;;;22.33;17.23;;;;;;;21.09;77.04;95980.38;6224666;23;20010;-91
2021/07/17 06:43:16;;;;;;;22.73;17.20;;;;;;;21.07;77.17;95971.91;6225438;23;20021;-91
2021/07/17 06:45:42;;;;;;;22.30;16.48;;;;;;;21.16;77.67;95969.41;6225003;23;20013;-91
2021/07/17 06:48:08;;;;;;;26.70;17.20;;;;;;;21.29;78.02;95985.19;6225072;23;20030;-92
2021/07/17 06:50:34;;;;;;;27.08;17.67;;;;;;;21.21;77.58;95967.81;6225175;23;20006;-91
2021/07/17 06:52:59;;;;;;;19.60;16.30;;;;;;;21.58;78.19;96012.91;6224684;23;20012;-91
2021/07/17 06:55:34;;;;;;;23.80;16.65;;;;;;;21.53;77.74;96000.72;6225142;23;20046;-91
2021/07/17 06:57:59;;;;;;;26.23;17.52;;;;;;;21.69;77.29;96002.31;6225063;23;20006;-91
2021/07/17 07:00:25;;;;;;;18.73;15.60;;;;;;;21.79;77.25;95991.53;6123121;22;20029;-91
2021/07/17 07:02:50;;;;;;;28.20;17.55;;;;;;;21.82;75.94;95986.94;6224894;23;20038;-90
2021/07/17 07:05:16;;;;;;;22.30;16.67;;;;;;;21.87;76.13;95984.03;6224630;23;20035;-91
2021/07/17 07:07:42;;;;;;;29.52;17.25;;;;;;;21.97;75.59;95987.78;6224858;23;19998;-90
2021/07/17 07:10:09;;;;;;;22.45;16.15;;;;;;;22.10;74.68;95988.94;6224826;23;20032;-90
2021/07/17 07:12:39;;;;;;;22.90;17.05;;;;;;;22.25;75.52;96000.13;6225019;23;20012;-90
2021/07/17 07:15:09;;;;;;;23.95;16.48;;;;;;;22.42;75.57;95985.84;6224667;23;20021;-90
2021/07/17 07:17:35;;;;;;;22.85;17.08;;;;;;;22.56;74.35;95983.69;6224640;23;20034;-90
2021/07/17 07:20:01;;;;;;;24.67;16.58;;;;;;;22.54;73.87;95964.88;6224787;23;20028;-91
2021/07/17 07:22:27;;;;;;;23.23;18.00;;;;;;;22.49;73.13;95958.22;6224643;23;20038;-91
2021/07/17 07:24:53;;;;;;;20.25;16.35;;;;;;;22.61;73.06;95971.72;6224875;23;20500;-91
2021/07/17 07:27:18;;;;;;;17.67;15.10;;;;;;;22.79;72.14;95989.31;6224254;23;19998;-90
2021/07/17 07:29:43;;;;;;;24.17;16.42;;;;;;;22.78;72.75;95977.50;6224899;23;20339;-91
2021/07/17 07:32:09;;;;;;;96.70;20.52;;;;;;;22.82;72.27;95977.16;6224588;23;20006;-91
2021/07/17 07:34:34;;;;;;;28.48;18.08;;;;;;;22.85;74.11;95981.56;6224228;23;20022;-90
2021/07/17 07:37:00;;;;;;;21.77;16.20;;;;;;;22.80;72.26;95972.19;6226244;23;20450;-91
2021/07/17 07:39:25;;;;;;;23.02;17.83;;;;;;;22.57;73.51;95963.03;6226500;23;20006;-90
2021/07/17 07:41:51;;;;;;;21.25;17.63;;;;;;;22.73;75.62;95972.88;6226376;23;20006;-90
2021/07/17 07:44:16;;;;;;;23.73;17.23;;;;;;;22.90;74.31;95973.13;6226009;23;20029;-91
2021/07/17 07:46:42;;;;;;;20.92;17.33;;;;;;;23.00;73.69;95982.38;6226574;23;20093;-90
2021/07/17 07:49:08;;;;;;;19.77;17.55;;;;;;;22.99;72.97;95971.88;6226531;23;20002;-89
2021/07/17 07:51:34;;;;;;;21.20;18.80;;;;;;;23.04;72.97;95976.50;6226513;23;20036;-90
2021/07/17 07:54:46;;;;;;;23.58;18.38;;;;;;;23.21;72.69;95992.59;6226666;23;20041;-89
2021/07/17 07:57:12;;;;;;;27.98;18.13;;;;;;;23.23;72.19;95985.22;6191884;23;20032;-90
2021/07/17 07:59:38;;;;;;;18.88;16.80;;;;;;;23.26;72.04;95978.56;6226147;23;20014;-90
2021/07/17 08:02:03;;;;;;;20.65;16.52;;;;;;;23.16;70.20;95972.09;6226445;23;20010;-90
2021/07/17 08:04:29;;;;;;;21.20;16.85;;;;;;;23.39;71.23;95977.69;6226175;23;20010;-90
2021/07/17 08:06:55;;;;;;;23.02;17.02;;;;;;;23.53;71.35;95978.22;6123513;22;20002;-91
2021/07/17 08:09:20;;;;;;;21.20;16.70;;;;;;;23.63;70.60;95984.72;6226019;23;20005;-90
2021/07/17 08:11:46;;;;;;;18.90;16.48;;;;;;;23.69;71.31;95979.00;6123947;22;20010;-90
2021/07/17 08:14:11;;;;;;;21.15;16.75;;;;;;;23.59;69.82;95951.06;6226086;23;20002;-90
2021/07/17 08:16:37;;;;;;;25.75;17.02;;;;;;;23.79;70.12;95957.75;6226225;23;20013;-91
2021/07/17 08:19:02;;;;;;;20.70;17.08;;;;;;;24.03;69.58;95965.47;6226069;23;20006;-90
2021/07/17 08:21:28;;;;;;;23.92;16.58;;;;;;;24.05;69.21;95959.38;6225924;23;20006;-90
2021/07/17 08:23:53;;;;;;;21.58;18.40;;;;;;;24.04;68.56;95961.41;6225815;23;20071;-90
2021/07/17 08:26:18;;;;;;;22.20;17.83;;;;;;;24.09;68.59;95959.00;6226134;23;20005;-90
2021/07/17 08:28:44;;;;;;;22.90;16.75;;;;;;;24.12;69.51;95964.16;6225886;23;20059;-90
2021/07/17 08:31:10;;;;;;;23.98;18.10;;;;;;;24.17;68.25;95956.94;6225929;23;20012;-90
2021/07/17 08:33:37;;;;;;;24.40;16.77;;;;;;;24.23;67.98;95960.97;6225624;23;20097;-91
2021/07/17 08:36:03;;;;;;;28.92;16.63;;;;;;;24.44;68.27;95977.41;6226194;23;20080;-91
2021/07/17 08:38:29;;;;;;;43.10;17.85;;;;;;;24.50;68.63;95977.19;6225750;23;20010;-90
2021/07/17 08:40:57;;;;;;;31.45;17.27;;;;;;;24.48;68.06;95975.00;6226025;23;20375;-91
2021/07/17 08:43:23;;;;;;;24.45;17.83;;;;;;;24.44;66.96;95971.13;6225850;23;20684;-88
2021/07/17 08:45:50;;;;;;;24.17;16.80;;;;;;;24.36;67.93;95959.31;6226044;23;20001;-90
2021/07/17 08:48:18;;;;;;;28.00;17.52;;;;;;;24.39;67.54;95947.09;6225342;23;20002;-89
2021/07/17 08:50:44;;;;;;;18.30;16.08;;;;;;;24.49;67.28;95961.84;6226196;23;20044;-90
2021/07/17 08:53:11;;;;;;;20.60;16.10;;;;;;;24.51;68.05;95943.38;6225663;23;20035;-90
2021/07/17 08:55:37;;;;;;;24.70;16.83;;;;;;;24.76;67.31;95954.50;6225801;23;20033;-90
2021/07/17 08:58:03;;;;;;;18.23;15.93;;;;;;;24.95;66.12;95970.00;6225680;23;20002;-90
2021/07/17 09:00:32;;;;;;;19.95;17.50;;;;;;;24.84;65.54;95948.94;6224295;23;20108;-90
2021/07/17 09:03:01;;;;;;;19.20;16.00;;;;;;;24.67;65.92;95913.50;6223503;23;20067;-90
2021/07/17 09:05:45;;;;;;;17.65;15.02;;;;;;;24.91;65.37;95939.09;6223875;23;20010;-91
2021/07/17 09:08:12;;;;;;;16.92;15.13;;;;;;;25.00;65.05;95927.38;6224245;23;20002;-90
2021/07/17 09:10:43;;;;;;;16.63;13.98;;;;;;;25.41;64.41;95951.03;6224202;23;20078;-90
2021/07/17 09:13:27;;;;;;;17.05;13.52;;;;;;;25.56;64.40;95928.63;6223956;23;20017;-90
2021/07/17 09:15:57;;;;;;;18.23;14.13;;;;;;;25.66;62.30;95955.81;6223844;23;20014;-90
2021/07/17 09:18:23;;;;;;;19.15;14.45;;;;;;;25.93;62.66;95951.13;6224045;23;20339;-90
2021/07/17 09:21:12;;;;;;;16.33;13.70;;;;;;;25.86;62.09;95938.06;6223981;23;20006;-90
2021/07/17 09:23:49;;;;;;;16.13;13.52;;;;;;;25.92;61.72;95923.91;6223681;23;20473;-90
2021/07/17 09:26:39;;;;;;;15.38;13.77;;;;;;;26.20;59.75;95951.22;6223954;23;20006;-90
2021/07/17 09:29:09;;;;;;;;;;;;;;;26.48;59.83;95954.88;6209439;23;20010;-90
2021/07/17 09:31:35;;;;;;;;;;;;;;;26.64;59.86;95956.91;6224014;23;19909;-90
2021/07/17 09:34:13;;;;;;;14.55;13.05;;;;;;;26.68;58.23;95956.47;6223438;23;19913;-90
2021/07/17 09:36:57;;;;;;;16.50;13.65;;;;;;;26.68;58.23;95956.47;6223764;23;20087;-90
2021/07/17 09:39:34;;;;;;;15.05;13.50;;;;;;;26.45;59.60;95931.69;6223495;23;20006;-91
2021/07/17 09:42:11;;;;;;;15.65;13.90;;;;;;;26.45;59.60;95931.69;6224104;23;20468;-91
2021/07/17 09:44:37;;;;;;;14.68;12.52;;;;;;;26.45;59.60;95931.69;6223879;23;20016;-91
2021/07/17 09:47:14;;;;;;;16.08;14.18;;;;;;;26.45;59.60;95931.69;6223782;23;20006;-90
2021/07/17 09:49:40;;;;;;;15.63;13.70;;;;;;;26.65;57.90;95929.78;6223644;23;20041;-90
2021/07/17 09:52:14;;;;;;;19.17;14.00;;;;;;;26.60;60.30;95928.00;6223662;23;20032;-91
2021/07/17 09:55:06;;;;;;;15.73;14.13;;;;;;;26.83;58.53;95945.13;6223640;23;20079;-90
2021/07/17 09:57:33;;;;;;;17.95;13.80;;;;;;;26.83;58.53;95945.13;6223469;23;20009;-90
2021/07/17 10:00:02;;;;;;;16.60;13.70;;;;;;;26.83;58.53;95945.13;6223384;23;20423;-91
2021/07/17 10:02:29;;;;;;;14.60;13.20;;;;;;;26.54;59.22;95914.34;6223509;23;20092;-91
2021/07/17 10:04:55;;;;;;;16.42;14.13;;;;;;;26.54;59.22;95914.34;6223693;23;20002;-90
2021/07/17 10:07:21;;;;;;;16.05;14.40;;;;;;;26.34;59.49;95918.25;6223431;23;20020;-90
2021/07/17 10:09:49;;;;;;;13.95;12.52;;;;;;;-145.61;100.00;68426.72;6223810;23;20006;-90
2021/07/17 10:12:15;;;;;;;15.02;13.43;;;;;;;26.37;59.48;95922.69;6121923;22;20009;-90
2021/07/17 10:14:42;;;;;;;14.75;13.25;;;;;;;26.37;59.48;95922.69;6223732;23;20045;-90
2021/07/17 10:17:14;;;;;;;16.33;13.57;;;;;;;-145.61;100.00;68426.72;6223439;23;20442;-91
2021/07/17 10:19:42;;;;;;;16.13;13.43;;;;;;;-145.61;100.00;68426.72;6223167;23;20014;-90
2021/07/17 10:22:09;;;;;;;15.85;13.85;;;;;;;-145.61;100.00;68426.72;6223236;23;20089;-90
2021/07/17 10:24:36;;;;;;;15.82;13.25;;;;;;;-145.61;100.00;68426.72;6223713;23;20010;-90
2021/07/17 10:27:02;;;;;;;17.25;14.13;;;;;;;-145.61;100.00;68426.72;6223064;23;20002;-90
2021/07/17 10:29:28;;;;;;;14.35;12.85;;;;;;;26.35;59.66;95917.69;6223349;23;20002;-90
2021/07/17 10:31:56;;;;;;;15.82;13.30;;;;;;;-145.61;100.00;68426.72;6121200;22;20537;-90
2021/07/17 10:34:22;;;;;;;14.75;13.25;;;;;;;-145.61;100.00;68426.72;6223113;23;20060;-90
2021/07/17 10:37:16;;;;;;;14.75;13.25;;;;;;;-145.61;100.00;68426.72;6223039;23;20381;-90
2021/07/17 10:39:54;;;;;;;14.07;12.63;;;;;;;-145.61;100.00;68426.72;6223497;23;20010;-91
2021/07/17 10:42:22;;;;;;;15.52;13.02;;;;;;;-145.61;100.00;68426.72;6223079;23;20462;-91
2021/07/17 10:44:49;;;;;;;13.98;12.48;;;;;;;-145.61;100.00;68426.72;6223530;23;20064;-90
2021/07/17 10:47:17;;;;;;;14.55;13.05;;;;;;;-145.61;100.00;68426.72;6223608;23;20095;-90
2021/07/17 10:50:00;;;;;;;15.80;12.93;;;;;;;-145.61;100.00;68426.72;6223266;23;20014;-91
2021/07/17 10:52:44;;;;;;;14.07;12.70;;;;;;;-145.61;100.00;68426.72;6222905;23;20393;-91
2021/07/17 10:55:32;;;;;;;18.80;14.70;;;;;;;-145.61;100.00;68426.72;6223074;23;20020;-91
2021/07/17 10:58:23;;;;;;;18.20;16.27;;;;;;;-145.61;100.00;68426.72;6223129;23;20040;-91
2021/07/17 11:00:51;;;;;;;16.67;14.93;;;;;;;-145.61;100.00;68426.72;6207601;23;20013;-91
2021/07/17 11:03:21;;;;;;;16.85;15.15;;;;;;;-145.61;100.00;68426.72;6223075;23;20373;-91
2021/07/17 11:05:48;;;;;;;19.10;15.60;;;;;;;-145.61;100.00;68426.72;6122045;22;20299;-90
2021/07/17 11:08:30;;;;;;;21.58;17.17;;;;;;;-145.61;100.00;68426.72;6222333;23;20339;-91
2021/07/17 11:10:56;;;;;;;19.30;16.40;;;;;;;-145.61;100.00;68426.72;6225186;23;20009;-90